Time;durP1;ratioP1;P1;durP2;ratioP2;P2;SDS_P1;SDS_P2;PMS_P1;PMS_P2;Temp;Humidity;BMP_temperature;BMP_pressure;BME280_temperature;BME280_humidity;BME280_pressure;Samples;Min_cycle;Max_cycle;Signal;HPM_P1;HPM_P2
2022/11/10 00:01:04;;;;;;;9.43;2.35;;;11.50;99.90;;;;;;4988995;28;20161;-92
2022/11/10 00:03:30;;;;;;;9.90;2.40;;;11.40;99.90;;;;;;5005740;28;20168;-90
2022/11/10 00:05:56;;;;;;;10.50;1.73;;;11.40;99.90;;;;;;5004637;28;20248;-91
2022/11/10 00:08:23;;;;;;;10.73;2.40;;;11.30;99.90;;;;;;5005958;28;20185;-89
2022/11/10 00:10:57;;;;;;;20.63;2.83;;;11.40;99.90;;;;;;4992360;28;20253;-90
2022/11/10 00:13:31;;;;;;;12.95;2.63;;;11.40;99.90;;;;;;5026064;28;20511;-90
2022/11/10 00:18:49;;;;;;;12.50;2.20;;;11.60;99.90;;;;;;5004300;28;20204;-89
2022/11/10 00:21:16;;;;;;;13.82;2.55;;;11.60;99.90;;;;;;5007916;28;20165;-90
2022/11/10 00:23:42;;;;;;;9.52;1.70;;;11.60;99.90;;;;;;4987848;28;20177;-90
2022/11/10 00:26:16;;;;;;;10.50;1.90;;;11.50;99.90;;;;;;4997188;28;20645;-90
2022/11/10 00:28:43;;;;;;;9.50;2.63;;;11.40;99.90;;;;;;4995285;28;20199;-90
2022/11/10 00:31:10;;;;;;;16.42;3.83;;;11.50;99.90;;;;;;4995230;28;20590;-88
2022/11/10 00:33:37;;;;;;;11.98;2.33;;;11.50;99.90;;;;;;4994889;28;20165;-91
2022/11/10 00:36:04;;;;;;;5.55;2.40;;;11.60;99.90;;;;;;4994901;28;20173;-83
2022/11/10 00:38:29;;;;;;;8.30;1.90;;;11.50;99.90;;;;;;4994521;28;20188;-79
2022/11/10 00:40:57;;;;;;;10.75;2.33;;;11.50;99.90;;;;;;5001913;28;20213;-83
2022/11/10 00:43:23;;;;;;;7.25;2.28;;;11.60;99.90;;;;;;5008567;28;20168;-82
2022/11/10 00:45:48;;;;;;;11.63;2.13;;;11.50;99.90;;;;;;5014211;28;20164;-89
2022/11/10 00:48:14;;;;;;;14.93;2.30;;;11.50;99.90;;;;;;5002299;28;20189;-91
2022/11/10 00:50:40;;;;;;;10.95;2.33;;;11.60;99.90;;;;;;4977641;28;20171;-91
2022/11/10 00:53:06;;;;;;;11.85;2.35;;;11.40;99.90;;;;;;4995399;28;20181;-90
2022/11/10 00:55:31;;;;;;;7.78;2.03;;;11.60;99.90;;;;;;4994531;28;20185;-91
2022/11/10 00:57:57;;;;;;;21.55;3.10;;;11.60;99.90;;;;;;4994592;28;20238;-91
2022/11/10 01:00:23;;;;;;;11.63;1.90;;;11.60;99.90;;;;;;4995747;28;20209;-88
2022/11/10 01:02:48;;;;;;;10.15;2.85;;;11.70;99.90;;;;;;4994021;28;20173;-90
2022/11/10 01:05:14;;;;;;;8.43;2.65;;;11.70;99.90;;;;;;4996443;28;20177;-91
2022/11/10 01:07:39;;;;;;;8.57;1.90;;;11.50;99.90;;;;;;4994750;28;20185;-90
2022/11/10 01:10:05;;;;;;;9.00;2.50;;;11.60;99.90;;;;;;4994718;28;20256;-87
2022/11/10 01:12:31;;;;;;;17.10;3.00;;;11.80;99.90;;;;;;4994369;28;20173;-90
2022/11/10 01:14:56;;;;;;;6.68;2.08;;;11.90;99.90;;;;;;5009619;28;20180;-90
2022/11/10 01:17:22;;;;;;;12.70;2.63;;;11.90;99.90;;;;;;4994343;28;20169;-86
2022/11/10 01:19:47;;;;;;;12.85;1.60;;;11.80;99.90;;;;;;4994261;28;20201;-83
2022/11/10 01:22:13;;;;;;;6.32;2.08;;;11.70;99.90;;;;;;4994691;28;20224;-83
2022/11/10 01:24:39;;;;;;;9.38;2.10;;;11.60;99.90;;;;;;4994240;28;20158;-89
2022/11/10 01:27:04;;;;;;;7.50;2.25;;;11.60;99.90;;;;;;4994403;28;20165;-87
2022/11/10 01:29:30;;;;;;;10.60;2.10;;;11.50;99.90;;;;;;4994085;28;20193;-90
2022/11/10 01:31:56;;;;;;;12.95;2.15;;;11.50;99.90;;;;;;5009551;28;20692;-89
2022/11/10 01:34:21;;;;;;;9.85;1.85;;;11.50;99.90;;;;;;4993645;28;20252;-90
2022/11/10 01:36:47;;;;;;;7.80;2.10;;;11.40;99.90;;;;;;4994453;28;20201;-90
2022/11/10 01:39:12;;;;;;;17.75;3.00;;;11.30;99.90;;;;;;4994027;28;20220;-91
2022/11/10 01:41:38;;;;;;;7.03;1.98;;;11.30;99.90;;;;;;4994104;28;20184;-90
2022/11/10 01:44:21;;;;;;;9.95;2.80;;;11.40;99.90;;;;;;5009375;28;20204;-91
2022/11/10 01:46:47;;;;;;;9.45;2.25;;;11.40;99.90;;;;;;5009239;28;20224;-89
2022/11/10 01:49:16;;;;;;;13.68;2.25;;;11.30;99.90;;;;;;4994244;28;20586;-91
2022/11/10 01:51:58;;;;;;;21.48;2.58;;;11.40;99.90;;;;;;4995615;28;20168;-91
2022/11/10 01:54:33;;;;;;;10.63;2.60;;;11.50;99.90;;;;;;4994088;28;20189;-90
2022/11/10 01:57:04;;;;;;;8.32;2.42;;;11.50;99.90;;;;;;4994209;28;20229;-90
2022/11/10 01:59:34;;;;;;;12.38;3.05;;;11.50;99.90;;;;;;4976669;28;20213;-90
2022/11/10 02:02:12;;;;;;;9.40;3.08;;;11.60;99.90;;;;;;4976843;28;20169;-90
2022/11/10 02:04:40;;;;;;;17.10;2.30;;;11.60;99.90;;;;;;4994004;28;20175;-90
2022/11/10 02:07:06;;;;;;;16.77;2.60;;;11.60;99.90;;;;;;4994011;28;20162;-91
2022/11/10 02:09:32;;;;;;;9.60;2.13;;;11.60;99.90;;;;;;4993967;28;20543;-90
2022/11/10 02:11:58;;;;;;;9.40;2.60;;;11.60;99.90;;;;;;4994072;28;20164;-92
2022/11/10 02:14:24;;;;;;;7.88;2.88;;;11.60;99.90;;;;;;4994249;28;20176;-90
2022/11/10 02:16:49;;;;;;;9.73;2.20;;;11.50;99.90;;;;;;4997570;28;20169;-88
2022/11/10 02:19:17;;;;;;;17.67;2.78;;;11.40;99.90;;;;;;4980032;28;20211;-90
2022/11/10 02:21:42;;;;;;;10.10;2.05;;;11.40;99.90;;;;;;4980688;28;20267;-90
2022/11/10 02:24:08;;;;;;;13.40;2.55;;;11.40;99.90;;;;;;4980279;28;20264;-88
2022/11/10 02:26:38;;;;;;;12.82;2.03;;;11.30;99.90;;;;;;4997014;28;20180;-86
2022/11/10 02:29:04;;;;;;;11.50;2.90;;;11.20;99.90;;;;;;4996934;28;20666;-91
2022/11/10 02:31:29;;;;;;;6.72;2.25;;;11.10;99.90;;;;;;4997034;28;20177;-88
2022/11/10 02:33:55;;;;;;;14.85;2.33;;;11.20;99.90;;;;;;4997009;28;20168;-85
2022/11/10 02:36:20;;;;;;;5.72;1.85;;;11.20;99.90;;;;;;4996910;28;20505;-81
2022/11/10 02:38:46;;;;;;;7.90;2.25;;;11.10;99.90;;;;;;4997036;28;20189;-91
2022/11/10 02:41:11;;;;;;;21.23;2.53;;;11.20;99.90;;;;;;5011863;28;20185;-89
2022/11/10 02:43:38;;;;;;;21.42;2.75;;;11.20;99.90;;;;;;5012219;28;20165;-90
2022/11/10 02:46:03;;;;;;;12.50;2.55;;;11.10;99.90;;;;;;4996724;28;20173;-90
2022/11/10 02:48:29;;;;;;;15.30;2.55;;;11.00;99.90;;;;;;4996941;28;20268;-91
2022/11/10 02:50:54;;;;;;;12.73;1.95;;;11.00;99.90;;;;;;4996828;28;20169;-91
2022/11/10 02:53:20;;;;;;;10.50;2.40;;;11.00;99.90;;;;;;4997133;28;20173;-90
2022/11/10 02:55:46;;;;;;;9.35;2.40;;;11.00;99.90;;;;;;5011878;28;20181;-88
2022/11/10 02:58:11;;;;;;;12.82;2.75;;;11.10;99.90;;;;;;4996570;28;20193;-90
2022/11/10 03:00:37;;;;;;;17.83;2.67;;;11.20;99.90;;;;;;4996662;28;20626;-90
2022/11/10 03:03:03;;;;;;;15.70;2.17;;;11.10;99.90;;;;;;4996256;28;20169;-91
2022/11/10 03:05:30;;;;;;;9.43;2.22;;;11.20;99.90;;;;;;5011935;28;20538;-91
2022/11/10 03:07:59;;;;;;;10.38;2.42;;;11.20;99.90;;;;;;5007722;28;20185;-83
2022/11/10 03:10:25;;;;;;;18.50;2.03;;;11.10;99.90;;;;;;5017845;28;20184;-87
2022/11/10 03:12:59;;;;;;;11.35;2.17;;;11.00;99.90;;;;;;5016336;28;20165;-79
2022/11/10 03:15:26;;;;;;;17.73;2.30;;;11.10;99.90;;;;;;4999253;28;20171;-91
2022/11/10 03:17:52;;;;;;;13.90;2.80;;;11.10;99.90;;;;;;5000448;28;20185;-89
2022/11/10 03:20:18;;;;;;;9.48;2.40;;;11.00;99.90;;;;;;5001848;28;20235;-92
2022/11/10 03:22:44;;;;;;;18.83;2.80;;;10.80;99.90;;;;;;4997890;28;20165;-90
2022/11/10 03:25:10;;;;;;;13.27;2.40;;;10.90;99.90;;;;;;4980065;28;20178;-91
2022/11/10 03:27:36;;;;;;;11.93;1.98;;;11.00;99.90;;;;;;4978575;28;20200;-90
2022/11/10 03:30:04;;;;;;;9.85;2.20;;;10.90;99.90;;;;;;4996078;28;20161;-91
2022/11/10 03:32:29;;;;;;;14.75;2.20;;;10.80;99.90;;;;;;5010868;28;20575;-88
2022/11/10 03:34:55;;;;;;;9.20;2.38;;;10.90;99.90;;;;;;5011027;28;20228;-89
2022/11/10 03:37:20;;;;;;;6.65;2.25;;;11.00;99.90;;;;;;4996104;28;20574;-86
2022/11/10 03:39:46;;;;;;;7.88;2.00;;;11.00;99.90;;;;;;4995745;28;20553;-81
2022/11/10 03:42:12;;;;;;;13.00;2.33;;;10.90;99.90;;;;;;4995271;28;20219;-82
2022/11/10 03:44:39;;;;;;;8.93;2.45;;;10.90;99.90;;;;;;4997454;28;20637;-82
2022/11/10 03:47:04;;;;;;;15.20;3.10;;;10.70;99.90;;;;;;5012092;28;20150;-81
2022/11/10 03:49:30;;;;;;;11.60;2.50;;;10.80;99.90;;;;;;5010388;28;20192;-90
2022/11/10 03:51:58;;;;;;;14.55;3.80;;;10.70;99.90;;;;;;5024121;28;20176;-90
2022/11/10 03:54:23;;;;;;;19.00;3.05;;;10.80;99.90;;;;;;5005419;28;20181;-84
2022/11/10 03:57:01;;;;;;;10.20;2.53;;;10.90;99.90;;;;;;5005368;28;20220;-86
2022/11/10 03:59:28;;;;;;;19.38;2.95;;;10.90;99.90;;;;;;5010027;28;20208;-79
2022/11/10 04:01:55;;;;;;;19.77;2.92;;;10.90;99.90;;;;;;5020231;28;20208;-90
2022/11/10 04:09:51;;;;;;;32.85;3.25;;;10.90;99.90;;;;;;5022028;28;20200;-90
2022/11/10 04:17:52;;;;;;;16.10;2.83;;;11.10;99.90;;;;;;5009828;28;20175;-90
2022/11/10 04:20:18;;;;;;;11.20;2.38;;;11.10;99.90;;;;;;5022084;28;20236;-90
2022/11/10 04:26:27;;;;;;;7.22;2.00;;;11.10;99.90;;;;;;5005622;28;20649;-84
2022/11/10 04:28:16;;;;;;;21.50;2.88;;;11.10;99.90;;;;;;5003445;28;20295;-89
2022/11/10 04:30:43;;;;;;;16.67;2.75;;;11.10;99.90;;;;;;5002526;28;20189;-87
2022/11/10 04:33:10;;;;;;;8.68;2.47;;;11.20;99.90;;;;;;5002517;28;20169;-89
2022/11/10 04:35:39;;;;;;;21.52;2.92;;;11.20;99.90;;;;;;5003103;28;20200;-89
2022/11/10 04:38:04;;;;;;;8.90;2.33;;;11.10;99.90;;;;;;4985964;28;20196;-86
2022/11/10 04:40:30;;;;;;;8.65;2.30;;;11.00;99.90;;;;;;4996051;28;20571;-83
2022/11/10 04:42:55;;;;;;;22.17;2.75;;;11.00;99.90;;;;;;5004066;28;20191;-89
2022/11/10 04:45:22;;;;;;;8.98;2.47;;;10.80;99.90;;;;;;4999204;28;20169;-90
2022/11/10 04:47:48;;;;;;;17.23;2.45;;;10.60;99.90;;;;;;5020416;28;20276;-90
2022/11/10 04:50:14;;;;;;;6.07;2.28;;;10.70;99.90;;;;;;5030153;28;20160;-87
2022/11/10 04:52:40;;;;;;;17.15;2.45;;;10.70;99.90;;;;;;4986697;28;20161;-89
2022/11/10 04:55:06;;;;;;;13.00;2.25;;;10.80;99.90;;;;;;5002984;28;20606;-90
2022/11/10 04:57:32;;;;;;;14.00;2.95;;;10.90;99.90;;;;;;5020082;28;20201;-90
2022/11/10 05:00:06;;;;;;;24.90;2.50;;;11.10;99.90;;;;;;5007927;28;20185;-85
2022/11/10 05:02:32;;;;;;;12.38;2.28;;;11.00;99.90;;;;;;4988569;28;20260;-82
2022/11/10 05:04:57;;;;;;;12.80;3.05;;;11.10;99.90;;;;;;5003216;28;20200;-80
2022/11/10 05:07:23;;;;;;;10.50;2.50;;;11.00;99.90;;;;;;5005181;28;20223;-88
2022/11/10 05:09:49;;;;;;;15.85;3.05;;;10.80;99.90;;;;;;5015742;28;20173;-86
2022/11/10 05:12:15;;;;;;;19.25;2.75;;;10.70;99.90;;;;;;4984486;28;20173;-90
2022/11/10 05:14:41;;;;;;;11.05;2.60;;;10.60;99.90;;;;;;4999502;28;20208;-85
2022/11/10 05:17:09;;;;;;;8.45;2.58;;;10.70;99.90;;;;;;4981181;28;20598;-79
2022/11/10 05:19:35;;;;;;;18.13;3.42;;;10.80;99.90;;;;;;5000233;28;20201;-79
2022/11/10 05:22:01;;;;;;;13.10;2.67;;;10.70;99.90;;;;;;4998647;28;20177;-80
2022/11/10 05:24:26;;;;;;;12.40;2.70;;;10.70;99.90;;;;;;4998045;28;20192;-91
2022/11/10 05:26:53;;;;;;;10.82;2.97;;;10.70;99.90;;;;;;5017552;28;20149;-91
2022/11/10 05:29:18;;;;;;;8.00;2.42;;;10.50;99.90;;;;;;5014659;28;20695;-91
2022/11/10 05:31:44;;;;;;;20.08;3.38;;;10.40;99.90;;;;;;4982750;28;20169;-91
2022/11/10 05:34:09;;;;;;;11.77;2.42;;;10.40;99.90;;;;;;4998925;28;20652;-90
2022/11/10 05:36:35;;;;;;;14.40;2.42;;;10.30;99.90;;;;;;4997778;28;20581;-92
2022/11/10 05:39:00;;;;;;;9.32;2.45;;;10.50;99.90;;;;;;4996724;28;20293;-91
2022/11/10 05:41:26;;;;;;;12.98;3.20;;;10.70;99.90;;;;;;5013957;28;20176;-91
2022/11/10 05:43:52;;;;;;;21.08;2.78;;;10.60;99.90;;;;;;5018148;28;20209;-84
2022/11/10 05:46:17;;;;;;;10.55;2.70;;;10.60;99.90;;;;;;5014321;28;20181;-88
2022/11/10 05:48:45;;;;;;;15.05;2.40;;;10.60;99.90;;;;;;5023933;28;20200;-90
2022/11/10 05:51:14;;;;;;;14.13;2.47;;;10.50;99.90;;;;;;5003595;28;20174;-92
2022/11/10 05:53:39;;;;;;;12.50;2.58;;;10.50;99.90;;;;;;5007228;28;20189;-91
2022/11/10 05:56:05;;;;;;;18.17;2.85;;;10.40;99.90;;;;;;5003349;28;20250;-91
2022/11/10 05:58:31;;;;;;;10.73;2.58;;;10.40;99.90;;;;;;5004590;28;20212;-91
2022/11/10 06:00:58;;;;;;;11.23;3.17;;;10.40;99.90;;;;;;5005358;28;20201;-89
2022/11/10 06:03:23;;;;;;;13.93;2.55;;;10.50;99.90;;;;;;5004816;28;20192;-90
2022/11/10 06:05:49;;;;;;;9.70;2.78;;;10.60;99.90;;;;;;5006951;28;20709;-91
2022/11/10 06:08:16;;;;;;;9.50;2.42;;;10.60;99.90;;;;;;5002739;28;20211;-87
2022/11/10 06:10:42;;;;;;;13.95;3.25;;;10.50;99.90;;;;;;5002691;28;20523;-89
2022/11/10 06:13:12;;;;;;;7.60;2.70;;;10.40;99.90;;;;;;4985423;28;20181;-90
2022/11/10 06:15:38;;;;;;;23.83;3.38;;;10.30;99.90;;;;;;4987303;28;20208;-91
2022/11/10 06:18:04;;;;;;;11.65;2.30;;;10.40;99.90;;;;;;4998216;28;20199;-91
2022/11/10 06:20:30;;;;;;;18.10;2.75;;;10.20;99.90;;;;;;4980736;28;20207;-93
2022/11/10 06:23:10;;;;;;;10.02;2.97;;;10.30;99.90;;;;;;5000540;28;20161;-83
2022/11/10 06:25:37;;;;;;;14.98;2.97;;;10.30;99.90;;;;;;5020411;28;20173;-88
2022/11/10 06:28:04;;;;;;;11.80;2.72;;;10.50;99.90;;;;;;5002407;28;20231;-91
2022/11/10 06:30:32;;;;;;;13.60;3.15;;;10.50;99.90;;;;;;4997397;28;20219;-91
2022/11/10 06:32:58;;;;;;;14.23;2.40;;;10.60;99.90;;;;;;4997869;28;20157;-87
2022/11/10 06:35:24;;;;;;;12.43;2.80;;;10.60;99.90;;;;;;4997574;28;20255;-91
2022/11/10 06:38:08;;;;;;;13.35;2.38;;;10.50;99.90;;;;;;4997196;28;20198;-90
2022/11/10 06:40:34;;;;;;;9.75;2.92;;;10.50;99.90;;;;;;4980208;28;20213;-92
2022/11/10 06:43:00;;;;;;;21.35;2.40;;;10.40;99.90;;;;;;4997387;28;20169;-84
2022/11/10 06:45:29;;;;;;;23.02;3.38;;;10.30;99.90;;;;;;5012645;28;20169;-90
2022/11/10 06:48:05;;;;;;;9.10;2.53;;;10.30;99.90;;;;;;4996860;28;20250;-91
2022/11/10 06:50:30;;;;;;;19.77;2.42;;;10.30;99.90;;;;;;4997274;28;20173;-92
2022/11/10 06:52:57;;;;;;;16.08;2.85;;;10.30;99.90;;;;;;5017556;28;20176;-85
2022/11/10 06:55:23;;;;;;;17.38;2.97;;;10.30;99.90;;;;;;5009822;28;20243;-86
2022/11/10 06:57:48;;;;;;;18.20;2.88;;;10.30;99.90;;;;;;5003944;28;20185;-91
2022/11/10 07:00:15;;;;;;;9.23;2.15;;;10.40;99.90;;;;;;4982365;28;20205;-91
2022/11/10 07:02:40;;;;;;;16.52;3.72;;;10.30;99.90;;;;;;5007067;28;20165;-90
2022/11/10 07:05:14;;;;;;;12.30;2.30;;;10.30;99.90;;;;;;5020381;28;20203;-83
2022/11/10 07:07:40;;;;;;;12.30;3.42;;;10.40;99.90;;;;;;4984957;28;20259;-91
2022/11/10 07:10:06;;;;;;;12.63;2.97;;;10.40;99.90;;;;;;5002152;28;20201;-78
2022/11/10 07:12:31;;;;;;;14.93;2.50;;;10.30;99.90;;;;;;5003588;28;20170;-83
2022/11/10 07:14:57;;;;;;;18.42;2.67;;;10.30;99.90;;;;;;5001906;28;20264;-91
2022/11/10 07:17:24;;;;;;;14.18;2.90;;;10.40;99.90;;;;;;5020511;28;20256;-86
2022/11/10 07:19:51;;;;;;;14.48;3.05;;;10.50;99.90;;;;;;5005231;28;20240;-89
2022/11/10 07:22:17;;;;;;;10.82;2.78;;;10.30;99.90;;;;;;5007119;28;20177;-83
2022/11/10 07:24:42;;;;;;;8.07;2.85;;;10.40;99.90;;;;;;5001522;28;20176;-87
2022/11/10 07:27:08;;;;;;;15.25;2.70;;;10.40;99.90;;;;;;5018471;28;20173;-92
2022/11/10 07:29:33;;;;;;;18.02;3.30;;;10.30;99.90;;;;;;5000284;28;20217;-93
2022/11/10 07:31:59;;;;;;;16.52;3.22;;;10.30;99.90;;;;;;5001263;28;20176;-89
2022/11/10 07:34:25;;;;;;;14.38;2.42;;;10.40;99.90;;;;;;5004799;28;20236;-89
2022/11/10 07:36:53;;;;;;;13.35;2.28;;;10.40;99.90;;;;;;5022450;28;20145;-90
2022/11/10 07:39:19;;;;;;;10.55;2.53;;;10.60;99.90;;;;;;4999813;28;20220;-88
2022/11/10 07:41:44;;;;;;;13.73;3.33;;;10.70;99.90;;;;;;4982805;28;20177;-89
2022/11/10 07:44:10;;;;;;;20.25;2.80;;;10.60;99.90;;;;;;5003782;28;20176;-87
2022/11/10 07:46:36;;;;;;;17.98;3.08;;;10.70;99.90;;;;;;4999719;28;20181;-83
2022/11/10 07:49:01;;;;;;;14.90;3.25;;;10.80;99.90;;;;;;4998683;28;20200;-86
2022/11/10 07:51:29;;;;;;;17.00;2.67;;;10.90;99.90;;;;;;5001102;28;20253;-91
2022/11/10 07:53:55;;;;;;;20.67;3.05;;;11.10;99.90;;;;;;5002137;28;20225;-90
2022/11/10 07:56:20;;;;;;;16.45;2.63;;;11.10;99.90;;;;;;5004115;28;20203;-80
2022/11/10 07:58:47;;;;;;;14.20;3.67;;;11.10;99.90;;;;;;4997853;28;20185;-91
2022/11/10 08:01:12;;;;;;;18.00;2.83;;;11.20;99.90;;;;;;4996083;28;20208;-92
2022/11/10 08:03:38;;;;;;;23.45;3.15;;;11.10;99.90;;;;;;5011157;28;20165;-89
2022/11/10 08:06:04;;;;;;;24.50;6.50;;;11.20;99.90;;;;;;4995679;28;20181;-88
2022/11/10 08:08:29;;;;;;;7.60;2.40;;;11.10;99.90;;;;;;5010886;28;20189;-90
2022/11/10 08:10:56;;;;;;;13.35;2.70;;;11.10;99.90;;;;;;5010483;28;20173;-86
2022/11/10 08:13:22;;;;;;;23.77;2.78;;;11.20;99.90;;;;;;4995323;28;20708;-89
2022/11/10 08:15:47;;;;;;;6.63;2.55;;;11.30;99.90;;;;;;4998488;28;20169;-81
2022/11/10 08:18:18;;;;;;;13.48;1.80;;;11.20;99.90;;;;;;5022300;28;20264;-84
2022/11/10 08:20:45;;;;;;;13.52;2.17;;;11.10;99.90;;;;;;5009665;28;20196;-85
2022/11/10 08:23:11;;;;;;;15.57;2.63;;;11.10;99.90;;;;;;5012701;28;20165;-82
2022/11/10 08:25:37;;;;;;;14.52;2.85;;;11.20;99.90;;;;;;4997601;28;20244;-85
2022/11/10 08:28:04;;;;;;;13.93;3.13;;;11.30;99.90;;;;;;4995466;28;20272;-90
2022/11/10 08:30:30;;;;;;;15.32;2.58;;;11.40;99.90;;;;;;4997194;28;20185;-90
2022/11/10 08:32:58;;;;;;;12.35;2.95;;;11.50;99.90;;;;;;4995780;28;20162;-90
2022/11/10 08:35:26;;;;;;;12.68;2.75;;;11.70;99.90;;;;;;4996496;28;20224;-87
2022/11/10 08:37:51;;;;;;;9.25;2.78;;;11.80;99.90;;;;;;4978598;28;20189;-83
2022/11/10 08:40:19;;;;;;;17.80;3.13;;;11.70;99.90;;;;;;4996809;28;20215;-89
2022/11/10 08:42:47;;;;;;;14.57;2.63;;;11.60;99.90;;;;;;4995518;28;20259;-87
2022/11/10 08:45:14;;;;;;;17.38;2.40;;;11.60;99.90;;;;;;4978868;28;20606;-89
2022/11/10 08:47:39;;;;;;;11.48;2.38;;;11.70;99.90;;;;;;4995237;28;20658;-90
2022/11/10 08:50:06;;;;;;;13.13;2.70;;;11.90;99.90;;;;;;4996695;28;20188;-81
2022/11/10 08:52:31;;;;;;;16.73;3.38;;;12.00;99.90;;;;;;4996984;28;20172;-90
2022/11/10 08:54:57;;;;;;;14.57;2.45;;;12.10;99.90;;;;;;4979213;28;20185;-83
2022/11/10 08:57:23;;;;;;;13.30;2.63;;;12.10;99.90;;;;;;4996487;28;20165;-78
2022/11/10 08:59:48;;;;;;;6.72;2.47;;;11.90;99.90;;;;;;4995730;28;20563;-81
2022/11/10 09:02:14;;;;;;;13.25;3.50;;;12.00;99.90;;;;;;4996315;28;20173;-84
2022/11/10 09:04:39;;;;;;;18.80;3.85;;;12.20;99.90;;;;;;4996420;28;20177;-87
2022/11/10 09:07:05;;;;;;;7.45;2.00;;;12.20;99.90;;;;;;4999608;28;20167;-89
2022/11/10 09:09:31;;;;;;;9.80;2.50;;;12.30;99.90;;;;;;4999441;28;20686;-90
2022/11/10 09:12:11;;;;;;;26.15;3.03;;;12.40;99.90;;;;;;4999035;28;20504;-88
2022/11/10 09:14:36;;;;;;;10.13;2.47;;;12.40;99.90;;;;;;4995457;28;20172;-91
2022/11/10 09:17:02;;;;;;;17.65;2.80;;;12.40;99.90;;;;;;4996160;28;20172;-91
2022/11/10 09:19:27;;;;;;;8.43;2.60;;;12.50;99.90;;;;;;4994166;28;20227;-87
2022/11/10 09:21:53;;;;;;;17.70;3.10;;;12.50;99.90;;;;;;4994768;28;20182;-91
2022/11/10 09:24:18;;;;;;;14.43;4.90;;;12.40;99.90;;;;;;4979604;28;20647;-91
2022/11/10 09:26:46;;;;;;;14.32;2.85;;;12.40;99.90;;;;;;4998900;28;20410;-90
2022/11/10 09:29:12;;;;;;;14.27;3.05;;;12.60;99.90;;;;;;4998564;28;20177;-91
2022/11/10 09:31:37;;;;;;;16.33;3.97;;;12.60;99.90;;;;;;4998645;28;20184;-91
2022/11/10 09:34:03;;;;;;;25.55;8.30;;;12.60;99.90;;;;;;4997830;28;20161;-89
2022/11/10 09:36:29;;;;;;;12.95;3.40;;;12.70;99.90;;;;;;4998210;28;20189;-91
2022/11/10 09:38:54;;;;;;;12.48;3.13;;;12.80;99.90;;;;;;4981021;28;20279;-91
2022/11/10 09:41:20;;;;;;;13.30;3.40;;;12.80;99.90;;;;;;4998501;28;20197;-92
2022/11/10 09:44:01;;;;;;;20.00;3.67;;;12.80;99.90;;;;;;4998817;28;20224;-78
2022/11/10 09:46:35;;;;;;;10.68;2.55;;;12.80;99.90;;;;;;4998059;28;20180;-91
2022/11/10 09:49:30;;;;;;;12.75;3.38;;;12.80;99.90;;;;;;4998088;28;20753;-79
2022/11/10 09:51:57;;;;;;;11.45;3.55;;;12.90;99.90;;;;;;4990338;28;20186;-87
2022/11/10 09:54:39;;;;;;;12.70;3.55;;;13.00;99.90;;;;;;4998231;28;20185;-92
2022/11/10 09:57:09;;;;;;;13.82;3.33;;;13.10;99.90;;;;;;4998640;28;20223;-85
2022/11/10 09:59:35;;;;;;;15.77;3.67;;;13.00;99.90;;;;;;4999960;28;20436;-92
2022/11/10 10:02:30;;;;;;;14.00;3.35;;;13.00;99.90;;;;;;4981050;28;20657;-87
2022/11/10 10:05:01;;;;;;;8.95;3.22;;;13.00;99.90;;;;;;4997677;28;20181;-93
2022/11/10 10:07:38;;;;;;;9.30;3.28;;;13.10;99.90;;;;;;4997800;28;20173;-80
2022/11/10 10:10:21;;;;;;;16.25;3.80;;;13.30;99.90;;;;;;4997769;28;20165;-87
2022/11/10 10:12:47;;;;;;;23.02;4.38;;;13.50;99.90;;;;;;4997324;28;20228;-90
2022/11/10 10:15:34;;;;;;;22.05;3.60;;;13.50;99.90;;;;;;4997248;28;20189;-89
2022/11/10 10:18:30;;;;;;;24.48;4.35;;;13.60;99.90;;;;;;4997692;28;20745;-90
2022/11/10 10:21:26;;;;;;;12.95;3.83;;;13.50;99.90;;;;;;5000186;28;20289;-89
2022/11/10 10:23:54;;;;;;;20.63;3.85;;;13.50;99.90;;;;;;5000179;28;20165;-79
2022/11/10 10:26:27;;;;;;;15.73;4.47;;;13.70;99.90;;;;;;4998544;28;20240;-89
2022/11/10 10:28:54;;;;;;;14.80;3.53;;;13.70;99.90;;;;;;4998008;28;20620;-87
2022/11/10 10:31:31;;;;;;;8.38;4.10;;;13.60;99.90;;;;;;4997453;28;20165;-90
2022/11/10 10:33:57;;;;;;;9.30;3.28;;;13.60;99.90;;;;;;4999464;28;20217;-88
2022/11/10 10:36:25;;;;;;;15.73;3.10;;;13.70;99.90;;;;;;4996065;28;20169;-93
2022/11/10 10:38:55;;;;;;;15.82;3.28;;;13.70;99.90;;;;;;4997433;28;20201;-92
2022/11/10 10:41:24;;;;;;;16.17;3.45;;;13.90;99.90;;;;;;5002948;28;20718;-88
2022/11/10 10:43:53;;;;;;;12.95;3.17;;;14.00;99.90;;;;;;5001187;28;20173;-90
2022/11/10 10:46:23;;;;;;;12.32;3.33;;;14.00;99.90;;;;;;4982651;28;20181;-78
2022/11/10 10:49:24;;;;;;;10.00;3.00;;;14.00;99.90;;;;;;5014008;28;20191;-78
2022/11/10 10:52:14;;;;;;;19.17;3.05;;;14.00;99.90;;;;;;5016341;28;20165;-80
2022/11/10 10:54:40;;;;;;;10.90;3.28;;;14.10;99.90;;;;;;5010857;28;20188;-89
2022/11/10 10:57:19;;;;;;;20.67;3.00;;;14.20;99.90;;;;;;4998697;28;20165;-91
2022/11/10 10:59:45;;;;;;;9.88;2.50;;;14.30;99.90;;;;;;4989832;28;20555;-89
2022/11/10 11:02:29;;;;;;;7.55;2.65;;;14.30;99.90;;;;;;4964088;28;20173;-88
2022/11/10 11:05:14;;;;;;;5.97;2.28;;;14.40;99.90;;;;;;4997023;28;20633;-88
2022/11/10 11:07:40;;;;;;;12.80;2.80;;;14.50;99.90;;;;;;4997037;28;20271;-91
2022/11/10 11:10:23;;;;;;;16.52;2.90;;;14.50;99.90;;;;;;4996525;28;20265;-93
2022/11/10 11:12:48;;;;;;;8.40;2.70;;;14.50;99.90;;;;;;4979409;28;20212;-90
2022/11/10 11:15:27;;;;;;;11.93;3.22;;;14.60;99.90;;;;;;5005160;28;20169;-91
2022/11/10 11:17:58;;;;;;;5.43;1.55;;;14.60;99.90;;;;;;4979231;28;20300;-91
2022/11/10 11:20:48;;;;;;;7.60;2.08;;;14.40;99.90;;;;;;4996613;28;20243;-79
2022/11/10 11:23:50;;;;;;;9.23;2.28;;;14.40;99.90;;;;;;5005609;28;20212;-78
2022/11/10 11:26:24;;;;;;;6.63;2.15;;;14.40;99.90;;;;;;5005491;28;20192;-92
2022/11/10 11:29:08;;;;;;;8.73;2.03;;;14.50;99.90;;;;;;4986526;28;20196;-79
2022/11/10 11:32:09;;;;;;;7.00;2.30;;;14.40;99.90;;;;;;4998533;28;20170;-91
2022/11/10 11:34:59;;;;;;;11.95;2.25;;;14.50;99.90;;;;;;4985303;28;20184;-92
2022/11/10 11:37:49;;;;;;;11.15;2.75;;;14.60;99.90;;;;;;4986038;28;20177;-88
2022/11/10 11:40:41;;;;;;;15.35;2.00;;;14.60;99.90;;;;;;5004332;28;20205;-89
2022/11/10 11:43:18;;;;;;;17.88;2.30;;;14.50;99.90;;;;;;4993181;28;20249;-86
2022/11/10 11:46:13;;;;;;;12.57;2.33;;;14.60;99.90;;;;;;5011682;28;20184;-92
2022/11/10 11:49:22;;;;;;;10.88;1.98;;;14.50;99.90;;;;;;5009650;28;20264;-89
2022/11/10 11:52:13;;;;;;;9.50;2.20;;;14.60;99.90;;;;;;4994019;28;20586;-79
2022/11/10 11:54:45;;;;;;;10.73;3.20;;;14.60;99.90;;;;;;4984261;28;20189;-88
2022/11/10 11:57:50;;;;;;;7.78;1.77;;;14.70;99.90;;;;;;5004623;28;20176;-91
2022/11/10 12:00:17;;;;;;;9.30;2.20;;;14.70;99.90;;;;;;5003331;28;20205;-84
2022/11/10 12:03:09;;;;;;;20.27;2.47;;;14.80;99.90;;;;;;4983163;28;20206;-87
2022/11/10 12:06:01;;;;;;;8.70;2.58;;;15.00;99.90;;;;;;4986944;28;20177;-88
2022/11/10 12:08:30;;;;;;;11.70;1.70;;;15.10;99.90;;;;;;4985560;28;20264;-81
2022/11/10 12:11:28;;;;;;;13.35;1.95;;;15.10;99.90;;;;;;5003612;28;20180;-81
2022/11/10 12:14:13;;;;;;;12.68;1.92;;;15.20;99.90;;;;;;5000436;28;20170;-79
2022/11/10 12:16:46;;;;;;;9.73;1.63;;;15.20;99.90;;;;;;5003495;28;20157;-78
2022/11/10 12:19:23;;;;;;;9.73;2.20;;;15.20;99.90;;;;;;4999315;28;20185;-79
2022/11/10 12:21:54;;;;;;;11.93;1.75;;;15.30;99.90;;;;;;5001781;28;20255;-91
2022/11/10 12:24:38;;;;;;;6.40;1.60;;;15.30;99.90;;;;;;5005010;28;20162;-92
2022/11/10 12:27:35;;;;;;;5.07;1.38;;;15.30;99.90;;;;;;5003258;28;20556;-89
2022/11/10 12:30:16;;;;;;;2.30;1.02;;;15.40;99.90;;;;;;5005212;28;20175;-92
2022/11/10 12:32:48;;;;;;;9.15;1.63;;;15.30;99.90;;;;;;5004227;28;20161;-93
2022/11/10 12:35:27;;;;;;;5.65;1.30;;;15.20;99.90;;;;;;5005359;28;20221;-91
2022/11/10 12:38:08;;;;;;;6.57;1.48;;;15.20;99.90;;;;;;5005132;28;20185;-83
2022/11/10 12:40:42;;;;;;;3.83;1.30;;;15.20;99.90;;;;;;4988968;28;20224;-94
2022/11/10 12:43:39;;;;;;;2.55;0.98;;;15.30;99.90;;;;;;5007186;28;20157;-93
2022/11/10 12:46:08;;;;;;;3.60;1.15;;;15.40;99.90;;;;;;5003750;28;20699;-91
2022/11/10 12:49:05;;;;;;;2.25;1.08;;;15.40;99.90;;;;;;5007280;28;20185;-87
2022/11/10 12:51:39;;;;;;;4.68;0.88;;;15.50;99.90;;;;;;5014702;28;20159;-91
2022/11/10 12:54:27;;;;;;;6.28;1.35;;;15.70;99.90;;;;;;4990837;28;20174;-91
2022/11/10 12:57:24;;;;;;;8.98;1.70;;;15.70;99.90;;;;;;5005024;28;20173;-92
2022/11/10 13:00:11;;;;;;;2.65;1.02;;;15.50;99.90;;;;;;5006678;28;20196;-93
2022/11/10 13:02:47;;;;;;;3.47;1.35;;;15.40;99.90;;;;;;5012826;28;20168;-85
2022/11/10 13:05:12;;;;;;;3.53;1.10;;;15.50;99.90;;;;;;5006432;28;20255;-94
2022/11/10 13:07:41;;;;;;;10.07;1.33;;;15.40;99.90;;;;;;5005841;28;20189;-91
2022/11/10 13:10:29;;;;;;;7.00;1.17;;;15.40;99.90;;;;;;5009150;28;20161;-93
2022/11/10 13:13:04;;;;;;;5.35;1.25;;;15.40;99.90;;;;;;5013066;28;20656;-91